createdAt,value
2023-01-09T00:01:41.631Z,19151.34
2023-01-09T00:04:10.099Z,19110.72
2023-01-09T00:06:40.125Z,19114.78
2023-01-09T00:09:08.416Z,19126.97
2023-01-09T00:11:36.755Z,19129.00
2023-01-09T00:14:05.925Z,19112.75
2023-01-09T00:16:35.467Z,19124.94
2023-01-09T00:19:03.792Z,19167.59
2023-01-09T00:21:31.927Z,19133.06
2023-01-09T00:24:00.019Z,19165.56
2023-01-09T00:26:28.350Z,19153.38
2023-01-09T00:28:56.577Z,19149.31
2023-01-09T00:31:24.939Z,19153.38
2023-01-09T00:34:01.242Z,19133.06
2023-01-09T00:36:29.862Z,19124.94
2023-01-09T00:38:58.160Z,19153.38
2023-01-09T00:41:32.323Z,19167.59
2023-01-09T00:44:07.285Z,19171.66
2023-01-09T00:46:41.548Z,19141.19
2023-01-09T00:49:14.115Z,19181.81
2023-01-09T00:51:43.456Z,19133.06
2023-01-09T00:54:16.091Z,19169.63
2023-01-09T00:56:44.785Z,19143.22
2023-01-09T00:59:12.974Z,19124.94
2023-01-09T01:01:41.234Z,19137.13
2023-01-09T01:04:28.102Z,19126.97
2023-01-09T01:07:13.908Z,19129.00
2023-01-09T01:09:42.181Z,19116.81
2023-01-09T01:12:10.310Z,19118.84
2023-01-09T01:14:40.339Z,19118.84
2023-01-09T01:17:09.325Z,19112.75
2023-01-09T01:19:38.873Z,19068.03
2023-01-09T01:22:07.065Z,19124.94
2023-01-09T01:24:35.275Z,19139.16
2023-01-09T01:27:03.663Z,19126.97
2023-01-09T01:29:31.887Z,19149.31
2023-01-09T01:32:00.112Z,19145.25
2023-01-09T01:34:29.946Z,19104.59
2023-01-09T01:36:59.419Z,19153.38
2023-01-09T01:39:27.512Z,19120.88
2023-01-09T01:41:55.660Z,19161.50
2023-01-09T01:45:01.915Z,19131.03
2023-01-09T01:47:42.301Z,19135.09
2023-01-09T01:50:20.540Z,19131.03
2023-01-09T01:52:59.287Z,19118.84
2023-01-09T01:55:27.598Z,19151.34
2023-01-09T01:58:03.459Z,19163.53
2023-01-09T02:00:36.254Z,19157.44
2023-01-09T02:03:04.900Z,19135.09
2023-01-09T02:05:34.142Z,19135.09
2023-01-09T02:08:03.687Z,19157.44
2023-01-09T02:10:32.803Z,19175.72
2023-01-09T02:13:02.171Z,19175.72
2023-01-09T02:15:39.057Z,19183.84
2023-01-09T02:18:45.028Z,19183.84
2023-01-09T02:21:25.824Z,19204.19
2023-01-09T02:24:45.417Z,19216.38
2023-01-09T02:27:47.256Z,19208.25
2023-01-09T02:30:35.669Z,19248.88
2023-01-09T02:33:30.248Z,19218.41
2023-01-09T02:36:16.760Z,19236.69
2023-01-09T02:39:00.754Z,19259.03
2023-01-09T02:41:39.809Z,19263.09
2023-01-09T02:44:23.748Z,19196.06
2023-01-09T02:47:06.230Z,19250.91
2023-01-09T02:49:37.955Z,19179.78
2023-01-09T02:52:26.098Z,19261.06
2023-01-09T02:55:10.187Z,19236.69
2023-01-09T02:57:59.551Z,19189.97
2023-01-09T03:00:46.541Z,19200.13
2023-01-09T03:03:27.410Z,19204.19
2023-01-09T03:06:05.997Z,19224.50
2023-01-09T03:08:41.054Z,19192.00
2023-01-09T03:11:11.843Z,19163.53
2023-01-09T03:13:48.051Z,19175.72
2023-01-09T03:16:27.941Z,19196.06
2023-01-09T03:19:00.408Z,19202.16
2023-01-09T03:21:30.055Z,19183.84
2023-01-09T03:24:00.988Z,19159.47
2023-01-09T03:26:31.006Z,19126.97
2023-01-09T03:29:00.496Z,19129.00
2023-01-09T03:31:28.692Z,19141.19
2023-01-09T03:33:58.232Z,19122.91
2023-01-09T03:36:26.385Z,19131.03
2023-01-09T03:38:54.520Z,19165.56
2023-01-09T03:41:22.660Z,19124.94
2023-01-09T03:43:50.800Z,19114.78
2023-01-09T03:46:18.990Z,19106.66
2023-01-09T03:48:47.105Z,19120.88
2023-01-09T03:51:16.600Z,19086.31
2023-01-09T03:53:44.758Z,19086.31
2023-01-09T03:56:12.859Z,19082.25
2023-01-09T03:58:41.011Z,19059.91
2023-01-09T04:01:12.620Z,19092.41
2023-01-09T04:03:41.707Z,19049.75
2023-01-09T04:06:10.532Z,19074.13
2023-01-09T04:08:40.030Z,19059.91
2023-01-09T04:11:08.593Z,19074.13
2023-01-09T04:13:36.768Z,19033.50
2023-01-09T04:16:05.423Z,19029.44
2023-01-09T04:18:33.563Z,19057.88
2023-01-09T04:21:01.696Z,19059.91
2023-01-09T04:23:29.784Z,19039.59
2023-01-09T04:25:59.278Z,19003.00
2023-01-09T04:28:27.390Z,19025.38
2023-01-09T04:30:55.510Z,19035.53
2023-01-09T04:33:23.602Z,19041.63
2023-01-09T04:35:51.719Z,19019.28
2023-01-09T04:38:19.999Z,19017.25
2023-01-09T04:40:49.275Z,18996.91
2023-01-09T04:43:18.754Z,19013.16
2023-01-09T04:45:47.054Z,19029.44
2023-01-09T04:48:15.200Z,18998.94
2023-01-09T04:50:43.374Z,19025.38
2023-01-09T04:53:11.583Z,18984.72
2023-01-09T04:55:41.213Z,18988.78
2023-01-09T04:58:09.467Z,19003.00
2023-01-09T05:00:39.014Z,19007.06
2023-01-09T05:03:07.145Z,18998.94
2023-01-09T05:05:35.240Z,18988.78
2023-01-09T05:08:03.371Z,18968.47
2023-01-09T05:10:31.466Z,18984.72
2023-01-09T05:12:59.559Z,18960.34
2023-01-09T05:15:28.287Z,18972.53
2023-01-09T05:17:57.856Z,18988.78
2023-01-09T05:20:25.988Z,18996.91
2023-01-09T05:22:54.099Z,19005.03
2023-01-09T05:25:22.216Z,19000.97
2023-01-09T05:27:50.468Z,18970.50
2023-01-09T05:30:19.500Z,18980.66
2023-01-09T05:32:47.717Z,18984.72
2023-01-09T05:35:17.447Z,19015.19
2023-01-09T05:37:45.604Z,19015.19
2023-01-09T05:40:14.815Z,18972.53
2023-01-09T05:42:45.057Z,19000.97
2023-01-09T05:45:13.711Z,19011.13
2023-01-09T05:47:42.458Z,19009.09
2023-01-09T05:50:12.606Z,18996.91
2023-01-09T05:52:42.291Z,19000.97
2023-01-09T05:55:13.330Z,18988.78
2023-01-09T05:57:42.086Z,19033.50
2023-01-09T06:00:12.025Z,19025.38
2023-01-09T06:02:41.414Z,18984.72
2023-01-09T06:05:10.935Z,19049.75
2023-01-09T06:07:40.586Z,18994.88
2023-01-09T06:10:14.348Z,19025.38
2023-01-09T06:12:44.642Z,19031.47
2023-01-09T06:15:15.315Z,19033.50
2023-01-09T06:17:43.547Z,19031.47
2023-01-09T06:20:13.232Z,19076.16
2023-01-09T06:22:41.389Z,19033.50
2023-01-09T06:25:11.449Z,19003.00
2023-01-09T06:27:39.661Z,19029.44
2023-01-09T06:30:10.002Z,19029.44
2023-01-09T06:32:38.131Z,19021.31
2023-01-09T06:35:06.992Z,19029.44
2023-01-09T06:37:35.186Z,19045.69
2023-01-09T06:40:03.366Z,19029.44
2023-01-09T06:42:32.889Z,19051.78
2023-01-09T06:45:00.974Z,19066.00
2023-01-09T06:47:29.101Z,19063.97
2023-01-09T06:49:58.163Z,19045.69
2023-01-09T06:52:26.294Z,19055.84
2023-01-09T06:54:54.372Z,19061.94
2023-01-09T06:57:22.480Z,19078.19
2023-01-09T06:59:51.923Z,19057.88
2023-01-09T07:02:22.713Z,19057.88
2023-01-09T07:04:50.894Z,19035.53
2023-01-09T07:07:19.794Z,19031.47
2023-01-09T07:09:48.221Z,19047.72
2023-01-09T07:12:16.389Z,19086.31
2023-01-09T07:14:44.771Z,19082.25
2023-01-09T07:17:17.334Z,19082.25
2023-01-09T07:19:45.419Z,19078.19
2023-01-09T07:22:13.816Z,19100.53
2023-01-09T07:24:44.218Z,19082.25
2023-01-09T07:27:12.935Z,19092.41
2023-01-09T07:29:41.022Z,19110.72
2023-01-09T07:32:09.253Z,19086.31
2023-01-09T07:34:38.744Z,19057.88
2023-01-09T07:37:06.920Z,19051.78
2023-01-09T07:39:34.994Z,19063.97
2023-01-09T07:42:03.139Z,19082.25
2023-01-09T07:44:31.506Z,19070.06
2023-01-09T07:46:59.639Z,19084.28
2023-01-09T07:49:27.798Z,19080.22
2023-01-09T07:51:57.451Z,19086.31
2023-01-09T07:54:25.657Z,19094.44
2023-01-09T07:56:53.880Z,19074.13
2023-01-09T07:59:22.108Z,19090.38
2023-01-09T08:01:50.330Z,19131.03
2023-01-09T08:04:18.597Z,19108.69
2023-01-09T08:06:46.703Z,19116.81
2023-01-09T08:09:16.297Z,19098.50
2023-01-09T08:11:44.392Z,19124.94
2023-01-09T08:14:12.567Z,19131.03
2023-01-09T08:16:40.730Z,19151.34
2023-01-09T08:19:11.956Z,19143.22
2023-01-09T08:21:40.636Z,19137.13
2023-01-09T08:24:10.658Z,19177.75
2023-01-09T08:26:40.462Z,19196.06
2023-01-09T08:29:08.747Z,19153.38
2023-01-09T08:31:36.996Z,19165.56
2023-01-09T08:34:05.498Z,19135.09
2023-01-09T08:36:33.587Z,19185.88
2023-01-09T08:39:01.782Z,19196.06
2023-01-09T08:41:47.601Z,19185.88
2023-01-09T08:44:34.477Z,19202.16
2023-01-09T08:47:08.687Z,19183.84
2023-01-09T08:49:39.334Z,19224.50
2023-01-09T08:52:08.609Z,19265.13
2023-01-09T08:54:36.892Z,19250.91
2023-01-09T08:57:05.200Z,19281.41
2023-01-09T08:59:35.106Z,19257.00
2023-01-09T09:02:03.343Z,19277.34
2023-01-09T09:04:31.672Z,19307.81
2023-01-09T09:06:59.800Z,19291.56
2023-01-09T09:09:27.927Z,19317.97
2023-01-09T09:11:56.039Z,19313.91
2023-01-09T09:14:42.131Z,19326.09
2023-01-09T09:17:11.621Z,19326.09
2023-01-09T09:19:42.497Z,19326.09
2023-01-09T09:22:10.660Z,19364.72
2023-01-09T09:24:38.958Z,19307.81
2023-01-09T09:27:07.127Z,19322.03
2023-01-09T09:29:35.222Z,19281.41
2023-01-09T09:32:03.465Z,19330.16
2023-01-09T09:34:33.139Z,19295.63
2023-01-09T09:37:01.344Z,19340.31
2023-01-09T09:39:29.483Z,19336.25
2023-01-09T09:42:41.013Z,19380.97
2023-01-09T09:45:27.789Z,19376.91
2023-01-09T09:48:16.321Z,19397.22
2023-01-09T09:51:36.565Z,19348.47
2023-01-09T09:54:14.198Z,19340.31
2023-01-09T09:56:49.511Z,19393.16
2023-01-09T09:59:22.304Z,19370.81
2023-01-09T10:01:56.722Z,19380.97
2023-01-09T10:04:30.475Z,19437.88
2023-01-09T10:07:06.114Z,19429.75
2023-01-09T10:09:51.061Z,19443.97
2023-01-09T10:12:29.913Z,19433.81
2023-01-09T10:15:00.321Z,19435.84
2023-01-09T10:17:52.560Z,19437.88
2023-01-09T10:20:49.098Z,19462.25
2023-01-09T10:23:44.269Z,19466.31
2023-01-09T10:26:22.571Z,19460.22
2023-01-09T10:29:13.633Z,19468.34
2023-01-09T10:32:00.694Z,19425.69
2023-01-09T10:34:51.185Z,19468.34
2023-01-09T10:37:26.372Z,19529.31
2023-01-09T10:40:03.858Z,19529.31
2023-01-09T10:42:40.137Z,19561.84
2023-01-09T10:45:22.049Z,19498.84
2023-01-09T10:47:50.659Z,19549.63
2023-01-09T10:50:23.435Z,19545.56
2023-01-09T10:52:54.861Z,19574.03
2023-01-09T10:55:39.061Z,19572.00
2023-01-09T10:58:14.768Z,19618.75
2023-01-09T11:00:43.995Z,19588.25
2023-01-09T11:03:14.179Z,19598.41
2023-01-09T11:05:43.227Z,19551.69
2023-01-09T11:08:25.526Z,19559.81
2023-01-09T11:10:57.443Z,19529.31
2023-01-09T11:13:29.245Z,19498.84
2023-01-09T11:16:05.579Z,19492.75
2023-01-09T11:18:35.496Z,19506.97
2023-01-09T11:21:31.864Z,19472.41
2023-01-09T11:24:30.857Z,19454.13
2023-01-09T11:27:24.550Z,19462.25
2023-01-09T11:30:26.865Z,19441.94
2023-01-09T11:32:57.016Z,19437.88
2023-01-09T11:35:33.736Z,19443.97
2023-01-09T11:38:08.853Z,19448.03
2023-01-09T11:40:49.399Z,19385.03
2023-01-09T11:43:32.654Z,19376.91
2023-01-09T11:46:05.007Z,19372.84
2023-01-09T11:48:40.451Z,19362.69
2023-01-09T11:51:23.590Z,19370.81
2023-01-09T11:54:13.302Z,19397.22
2023-01-09T11:56:42.329Z,19413.47
2023-01-09T11:59:14.752Z,19437.88
2023-01-09T12:02:32.078Z,19462.25
2023-01-09T12:05:06.671Z,19462.25
2023-01-09T12:08:02.988Z,19448.03
2023-01-09T12:11:04.164Z,19464.28
2023-01-09T12:13:53.827Z,19533.38
2023-01-09T12:16:36.822Z,19482.56
2023-01-09T12:19:39.677Z,19537.44
2023-01-09T12:22:22.651Z,19488.69
2023-01-09T12:25:14.232Z,19567.94
2023-01-09T12:28:07.813Z,19600.44
2023-01-09T12:30:57.242Z,19580.13
2023-01-09T12:33:43.995Z,19578.09
2023-01-09T12:36:23.507Z,19539.47
2023-01-09T12:38:56.411Z,19572.00
2023-01-09T12:41:55.199Z,19574.03
2023-01-09T12:44:49.410Z,19541.50
2023-01-09T12:47:46.235Z,19545.56
2023-01-09T12:50:48.773Z,19488.69
2023-01-09T12:53:24.730Z,19498.84
2023-01-09T12:56:02.188Z,19494.78
2023-01-09T12:58:44.697Z,19480.53
2023-01-09T13:01:20.795Z,19476.47
2023-01-09T13:03:58.559Z,19472.41
2023-01-09T13:06:30.269Z,19509.00
2023-01-09T13:09:15.906Z,19515.09
2023-01-09T13:11:51.950Z,19531.34
2023-01-09T13:14:31.696Z,19480.53
2023-01-09T13:17:03.366Z,19494.78
2023-01-09T13:19:39.943Z,19466.31
2023-01-09T13:22:14.660Z,19441.94
2023-01-09T13:25:17.732Z,19472.41
2023-01-09T13:27:56.048Z,19472.41
2023-01-09T13:30:46.606Z,19502.91
2023-01-09T13:33:24.866Z,19509.00
2023-01-09T13:35:57.210Z,19478.50
2023-01-09T13:38:30.667Z,19511.03
2023-01-09T13:41:32.539Z,19506.97
2023-01-09T13:44:03.893Z,19519.16
2023-01-09T13:46:40.305Z,19521.19
2023-01-09T13:49:30.994Z,19502.91
2023-01-09T13:52:03.321Z,19492.75
2023-01-09T13:55:29.276Z,19494.78
2023-01-09T13:58:27.268Z,19433.81
2023-01-09T14:01:03.166Z,19399.25
2023-01-09T14:03:38.048Z,19419.59
2023-01-09T14:06:22.741Z,19415.50
2023-01-09T14:09:13.771Z,19435.84
2023-01-09T14:11:42.053Z,19452.09
2023-01-09T14:14:29.377Z,19443.97
2023-01-09T14:16:59.684Z,19421.63
2023-01-09T14:19:38.307Z,19407.38
2023-01-09T14:22:08.495Z,19358.63
2023-01-09T14:24:46.376Z,19419.59
2023-01-09T14:28:06.767Z,19346.44
2023-01-09T14:30:39.317Z,19395.19
2023-01-09T14:33:29.917Z,19376.91
2023-01-09T14:36:13.298Z,19374.88
2023-01-09T14:38:47.487Z,19389.09
2023-01-09T14:41:41.838Z,19397.22
2023-01-09T14:44:27.394Z,19370.81
2023-01-09T14:47:04.753Z,19401.28
2023-01-09T14:49:41.904Z,19352.53
2023-01-09T14:52:22.245Z,19362.69
2023-01-09T14:54:52.994Z,19358.63
2023-01-09T14:57:29.322Z,19340.31
2023-01-09T15:00:05.288Z,19326.09
2023-01-09T15:02:38.202Z,19336.25
2023-01-09T15:05:11.339Z,19320.00
2023-01-09T15:07:45.297Z,19289.53
2023-01-09T15:10:24.266Z,19273.28
2023-01-09T15:12:56.248Z,19295.63
2023-01-09T15:15:25.882Z,19277.34
2023-01-09T15:17:59.241Z,19273.28
2023-01-09T15:20:31.512Z,19259.03
2023-01-09T15:23:01.635Z,19224.50
2023-01-09T15:25:38.924Z,19218.41
2023-01-09T15:28:31.987Z,19238.72
2023-01-09T15:31:12.187Z,19206.22
2023-01-09T15:33:44.056Z,19183.84
2023-01-09T15:36:18.442Z,19216.38
2023-01-09T15:38:48.954Z,19194.03
2023-01-09T15:41:38.895Z,19230.59
2023-01-09T15:44:14.841Z,19234.66
2023-01-09T15:46:46.252Z,19208.25
2023-01-09T15:49:16.174Z,19236.69
2023-01-09T15:51:47.903Z,19275.31
2023-01-09T15:54:20.861Z,19228.56
2023-01-09T15:56:49.015Z,19261.06
2023-01-09T15:59:27.940Z,19265.13
2023-01-09T16:02:20.356Z,19287.50
2023-01-09T16:04:53.745Z,19263.09
2023-01-09T16:07:22.565Z,19293.59
2023-01-09T16:09:52.683Z,19252.94
2023-01-09T16:12:26.462Z,19269.22
2023-01-09T16:14:58.716Z,19275.31
2023-01-09T16:17:29.832Z,19279.38
2023-01-09T16:20:14.394Z,19299.69
2023-01-09T16:22:55.412Z,19301.72
2023-01-09T16:25:30.487Z,19287.50
2023-01-09T16:28:21.236Z,19307.81
2023-01-09T16:30:59.261Z,19244.81
2023-01-09T16:33:30.452Z,19271.25
2023-01-09T16:36:00.448Z,19293.59
2023-01-09T16:38:29.175Z,19336.25
2023-01-09T16:41:24.122Z,19313.91
2023-01-09T16:43:53.178Z,19291.56
2023-01-09T16:46:22.579Z,19313.91
2023-01-09T16:48:51.034Z,19277.34
2023-01-09T16:51:22.732Z,19291.56
2023-01-09T16:53:51.278Z,19291.56
2023-01-09T16:56:24.356Z,19279.38
2023-01-09T16:58:54.681Z,19301.72
2023-01-09T17:01:23.982Z,19315.94
2023-01-09T17:03:52.623Z,19336.25
2023-01-09T17:06:29.096Z,19295.63
2023-01-09T17:08:57.559Z,19279.38
2023-01-09T17:11:31.317Z,19328.13
2023-01-09T17:13:59.791Z,19242.78
2023-01-09T17:16:29.799Z,19265.13
2023-01-09T17:18:58.211Z,19226.53
2023-01-09T17:21:30.715Z,19234.66
2023-01-09T17:24:17.219Z,19228.56
2023-01-09T17:27:09.119Z,19244.81
2023-01-09T17:29:37.690Z,19222.47
2023-01-09T17:32:06.608Z,19228.56
2023-01-09T17:34:34.827Z,19196.06
2023-01-09T17:37:04.766Z,19204.19
2023-01-09T17:39:32.942Z,19202.16
2023-01-09T17:42:01.862Z,19171.66
2023-01-09T17:44:32.819Z,19137.13
2023-01-09T17:47:00.900Z,19151.34
2023-01-09T17:49:29.024Z,19173.69
2023-01-09T17:51:57.141Z,19167.59
2023-01-09T17:54:26.583Z,19169.63
2023-01-09T17:56:54.809Z,19179.78
2023-01-09T17:59:22.894Z,19185.88
2023-01-09T18:01:50.982Z,19200.13
2023-01-09T18:04:19.047Z,19165.56
2023-01-09T18:06:48.223Z,19200.13
2023-01-09T18:09:18.509Z,19141.19
2023-01-09T18:11:48.255Z,19192.00
2023-01-09T18:14:17.449Z,19183.84
2023-01-09T18:16:46.047Z,19198.09
2023-01-09T18:19:14.119Z,19175.72
2023-01-09T18:21:42.218Z,19198.09
2023-01-09T18:24:10.561Z,19135.09
2023-01-09T18:26:38.781Z,19183.84
2023-01-09T18:29:09.180Z,19143.22
2023-01-09T18:31:37.286Z,19202.16
2023-01-09T18:34:07.295Z,19133.06
2023-01-09T18:36:35.594Z,19175.72
2023-01-09T18:39:07.090Z,19192.00
2023-01-09T18:41:35.532Z,19153.38
2023-01-09T18:44:03.774Z,19169.63
2023-01-09T18:46:33.201Z,19204.19
2023-01-09T18:49:04.414Z,19149.31
2023-01-09T18:51:35.690Z,19137.13
2023-01-09T18:54:04.099Z,19147.28
2023-01-09T18:56:32.211Z,19159.47
2023-01-09T18:59:00.529Z,19139.16
2023-01-09T19:01:30.890Z,19163.53
2023-01-09T19:04:01.326Z,19141.19
2023-01-09T19:06:30.985Z,19202.16
2023-01-09T19:09:00.209Z,19183.84
2023-01-09T19:11:28.514Z,19204.19
2023-01-09T19:13:56.626Z,19161.50
2023-01-09T19:16:24.790Z,19147.28
2023-01-09T19:18:52.984Z,19139.16
2023-01-09T19:21:26.639Z,19131.03
2023-01-09T19:23:54.993Z,19112.75
2023-01-09T19:26:25.926Z,19110.72
2023-01-09T19:28:57.514Z,19114.78
2023-01-09T19:31:28.441Z,19139.16
2023-01-09T19:33:58.071Z,19074.13
2023-01-09T19:36:28.991Z,19122.91
2023-01-09T19:38:58.266Z,19135.09
2023-01-09T19:41:26.540Z,19108.69
2023-01-09T19:43:54.737Z,19094.44
2023-01-09T19:46:25.886Z,19094.44
2023-01-09T19:48:56.994Z,19135.09
2023-01-09T19:51:25.463Z,19106.66
2023-01-09T19:56:30.098Z,19104.59
2023-01-09T19:59:00.303Z,19096.47
2023-01-09T20:01:31.306Z,19102.56
2023-01-09T20:04:03.267Z,19116.81
2023-01-09T20:06:32.030Z,19114.78
2023-01-09T20:09:03.633Z,19090.38
2023-01-09T20:11:33.720Z,19078.19
2023-01-09T20:14:01.978Z,19110.72
2023-01-09T20:16:31.452Z,19120.88
2023-01-09T20:19:04.138Z,19098.50
2023-01-09T20:21:32.208Z,19094.44
2023-01-09T20:24:05.340Z,19063.97
2023-01-09T20:26:34.316Z,19118.84
2023-01-09T20:29:03.345Z,19070.06
2023-01-09T20:31:32.884Z,19118.84
2023-01-09T20:34:01.490Z,19076.16
2023-01-09T20:36:31.596Z,19074.13
2023-01-09T20:39:04.425Z,19080.22
2023-01-09T20:41:32.697Z,19070.06
2023-01-09T20:44:04.802Z,19053.81
2023-01-09T20:46:37.966Z,19090.38
2023-01-09T20:49:08.676Z,19098.50
2023-01-09T20:51:41.312Z,19021.31
2023-01-09T20:54:10.894Z,19090.38
2023-01-09T20:56:39.148Z,19027.41
2023-01-09T20:59:12.363Z,19090.38
2023-01-09T21:01:41.460Z,19033.50
2023-01-09T21:04:10.017Z,19035.53
2023-01-09T21:06:38.281Z,19063.97
2023-01-09T21:09:07.674Z,19057.88
2023-01-09T21:11:37.652Z,19059.91
2023-01-09T21:14:05.813Z,19031.47
2023-01-09T21:16:33.998Z,19041.63
2023-01-09T21:19:02.123Z,19017.25
2023-01-09T21:21:30.864Z,19037.56
2023-01-09T21:24:00.547Z,19049.75
2023-01-09T21:26:30.661Z,19057.88
2023-01-09T21:29:08.184Z,19057.88
2023-01-09T21:31:36.713Z,19049.75
2023-01-09T21:34:08.633Z,19045.69
2023-01-09T21:36:36.954Z,19023.34
2023-01-09T21:39:08.310Z,19025.38
2023-01-09T21:41:54.326Z,19021.31
2023-01-09T21:44:41.333Z,19025.38
2023-01-09T21:47:09.711Z,19033.50
2023-01-09T21:49:42.884Z,19043.66
2023-01-09T21:52:12.827Z,19023.34
2023-01-09T21:54:41.713Z,19027.41
2023-01-09T21:57:10.105Z,18994.88
2023-01-09T21:59:39.594Z,19023.34
2023-01-09T22:02:11.624Z,18998.94
2023-01-09T22:04:42.756Z,19019.28
2023-01-09T22:07:11.296Z,19003.00
2023-01-09T22:09:39.484Z,19007.06
2023-01-09T22:12:08.230Z,19013.16
2023-01-09T22:14:38.212Z,19027.41
2023-01-09T22:17:08.429Z,19049.75
2023-01-09T22:19:36.596Z,19015.19
2023-01-09T22:22:07.232Z,19013.16
2023-01-09T22:24:36.222Z,19057.88
2023-01-09T22:27:04.633Z,19066.00
2023-01-09T22:29:32.735Z,19029.44
2023-01-09T22:32:00.901Z,19045.69
2023-01-09T22:34:30.949Z,19035.53
2023-01-09T22:36:59.181Z,19057.88
2023-01-09T22:39:27.303Z,19017.25
2023-01-09T22:41:55.518Z,19041.63
2023-01-09T22:44:23.660Z,19041.63
2023-01-09T22:46:51.785Z,19082.25
2023-01-09T22:49:19.893Z,19023.34
2023-01-09T22:51:49.418Z,19033.50
2023-01-09T22:54:17.814Z,19005.03
2023-01-09T22:56:45.939Z,18984.72
2023-01-09T22:59:14.042Z,18988.78
2023-01-09T23:01:42.184Z,18972.53
2023-01-09T23:04:16.510Z,19011.13
2023-01-09T23:06:44.615Z,18992.84
2023-01-09T23:09:14.148Z,18986.75
2023-01-09T23:11:59.852Z,19007.06
2023-01-09T23:14:27.950Z,18998.94
2023-01-09T23:16:56.352Z,18974.56
2023-01-09T23:19:24.619Z,18988.78
2023-01-09T23:21:52.853Z,19025.38
2023-01-09T23:24:22.438Z,18996.91
2023-01-09T23:26:52.129Z,19005.03
2023-01-09T23:29:20.404Z,18996.91
2023-01-09T23:31:48.787Z,18982.69
2023-01-09T23:34:19.759Z,18970.50
2023-01-09T23:36:48.631Z,19000.97
2023-01-09T23:39:16.856Z,18950.19
2023-01-09T23:42:03.807Z,19003.00
2023-01-09T23:44:31.945Z,19000.97
2023-01-09T23:47:00.166Z,19019.28
2023-01-09T23:49:28.344Z,18982.69
2023-01-09T23:51:57.235Z,18960.34
2023-01-09T23:54:26.099Z,18962.38
2023-01-09T23:56:56.525Z,18982.69
2023-01-09T23:59:24.911Z,18952.22
